createdAt,value
2023-03-31T00:01:54.326Z,97463.00
2023-03-31T00:04:32.254Z,97450.00
2023-03-31T00:07:08.171Z,97455.00
2023-03-31T00:09:46.120Z,97451.00
2023-03-31T00:12:21.891Z,97449.00
2023-03-31T00:14:56.909Z,97439.00
2023-03-31T00:17:33.151Z,97433.00
2023-03-31T00:20:12.494Z,97430.00
2023-03-31T00:22:47.632Z,97432.00
2023-03-31T00:25:22.532Z,97422.00
2023-03-31T00:27:58.026Z,97422.00
2023-03-31T00:30:32.878Z,97419.00
2023-03-31T00:33:09.426Z,97417.00
2023-03-31T00:35:46.100Z,97402.00
2023-03-31T00:38:22.088Z,97397.00
2023-03-31T00:40:59.069Z,97395.00
2023-03-31T00:43:37.262Z,97396.00
2023-03-31T00:46:20.611Z,97385.00
2023-03-31T00:48:57.897Z,97378.00
2023-03-31T00:51:35.623Z,97376.00
2023-03-31T00:54:11.696Z,97387.00
2023-03-31T00:56:48.964Z,97373.00
2023-03-31T00:59:28.185Z,97374.00
2023-03-31T01:02:04.646Z,97378.00
2023-03-31T01:04:46.487Z,97383.00
2023-03-31T01:07:25.772Z,97363.00
2023-03-31T01:10:04.831Z,97364.00
2023-03-31T01:12:44.424Z,97369.00
2023-03-31T01:15:19.711Z,97360.00
2023-03-31T01:17:55.943Z,97359.00
2023-03-31T01:21:10.145Z,97349.00
2023-03-31T01:24:08.467Z,97336.00
2023-03-31T01:27:27.975Z,97325.00
2023-03-31T01:30:37.397Z,97312.00
2023-03-31T01:34:03.531Z,97312.00
2023-03-31T01:37:14.658Z,97317.00
2023-03-31T01:40:10.536Z,97320.00
2023-03-31T01:42:57.667Z,97328.00
2023-03-31T01:46:00.703Z,97317.00
2023-03-31T01:48:44.890Z,97320.00
2023-03-31T01:51:37.591Z,97317.00
2023-03-31T01:54:28.287Z,97326.00
2023-03-31T01:57:28.485Z,97324.00
2023-03-31T02:00:18.203Z,97314.00
2023-03-31T02:03:19.302Z,97333.00
2023-03-31T02:05:58.980Z,97333.00
2023-03-31T02:08:44.273Z,97332.00
2023-03-31T02:11:20.288Z,97330.00
2023-03-31T02:13:56.926Z,97316.00
2023-03-31T02:16:34.739Z,97343.00
2023-03-31T02:19:11.058Z,97311.00
2023-03-31T02:21:51.400Z,97314.00
2023-03-31T02:24:27.706Z,97305.00
2023-03-31T02:27:28.400Z,97291.00
2023-03-31T02:30:04.945Z,97285.00
2023-03-31T02:32:46.623Z,97289.00
2023-03-31T02:35:23.085Z,97293.00
2023-03-31T02:37:58.922Z,97280.00
2023-03-31T02:40:33.914Z,97265.00
2023-03-31T02:43:08.756Z,97260.00
2023-03-31T02:45:51.628Z,97240.00
2023-03-31T02:48:29.631Z,97222.00
2023-03-31T02:51:38.332Z,97208.00
2023-03-31T02:55:04.690Z,97200.00
2023-03-31T02:58:00.310Z,97201.00
2023-03-31T03:01:01.815Z,97192.00
2023-03-31T03:04:19.499Z,97181.00
2023-03-31T03:07:15.289Z,97176.00
2023-03-31T03:10:14.378Z,97160.00
2023-03-31T03:13:18.021Z,97145.00
2023-03-31T03:16:19.204Z,97143.00
2023-03-31T03:19:03.865Z,97129.00
2023-03-31T03:21:38.720Z,97107.00
2023-03-31T03:24:16.933Z,97110.00
2023-03-31T03:26:51.918Z,97099.00
2023-03-31T03:29:27.618Z,97095.00
2023-03-31T03:32:02.444Z,97091.00
2023-03-31T03:34:37.916Z,97078.00
2023-03-31T03:37:12.817Z,97078.00
2023-03-31T03:39:47.680Z,97072.00
2023-03-31T03:42:22.722Z,97068.00
2023-03-31T03:44:57.574Z,97058.00
2023-03-31T03:47:32.494Z,97063.00
2023-03-31T03:50:08.405Z,97059.00
2023-03-31T03:52:43.689Z,97048.00
2023-03-31T03:55:18.559Z,97042.00
2023-03-31T03:57:53.384Z,97030.00
2023-03-31T04:00:28.238Z,97026.00
2023-03-31T04:03:03.275Z,97008.00
2023-03-31T04:05:38.472Z,97005.00
2023-03-31T04:08:13.319Z,97009.00
2023-03-31T04:10:49.818Z,96986.00
2023-03-31T04:13:24.736Z,96983.00
2023-03-31T04:15:59.625Z,96973.00
2023-03-31T04:18:37.036Z,96973.00
2023-03-31T04:21:15.461Z,96970.00
2023-03-31T04:24:07.301Z,96962.00
2023-03-31T04:26:43.351Z,96957.00
2023-03-31T04:29:20.906Z,96955.00
2023-03-31T04:31:59.196Z,96950.00
2023-03-31T04:34:37.047Z,96939.00
2023-03-31T04:37:11.941Z,96951.00
2023-03-31T04:39:50.640Z,96958.00
2023-03-31T04:42:25.710Z,96946.00
2023-03-31T04:45:00.648Z,96949.00
2023-03-31T04:47:35.605Z,96931.00
2023-03-31T04:50:13.979Z,96930.00
2023-03-31T04:52:50.357Z,96911.00
2023-03-31T04:55:25.810Z,96899.00
2023-03-31T04:58:01.746Z,96916.00
2023-03-31T05:00:36.593Z,96910.00
2023-03-31T05:03:12.021Z,96912.00
2023-03-31T05:05:46.924Z,96916.00
2023-03-31T05:08:21.791Z,96905.00
2023-03-31T05:10:57.110Z,96908.00
2023-03-31T05:13:32.345Z,96911.00
2023-03-31T05:16:14.770Z,96918.00
2023-03-31T05:18:49.789Z,96933.00
2023-03-31T05:21:26.753Z,96943.00
2023-03-31T05:24:01.573Z,96951.00
2023-03-31T05:26:36.577Z,96963.00
2023-03-31T05:29:11.432Z,96980.00
2023-03-31T05:31:47.274Z,96980.00
2023-03-31T05:34:22.194Z,96970.00
2023-03-31T05:36:57.710Z,96970.00
2023-03-31T05:39:33.121Z,96967.00
2023-03-31T05:42:08.495Z,96953.00
2023-03-31T05:44:43.346Z,96942.00
2023-03-31T05:47:18.774Z,96958.00
2023-03-31T05:49:53.655Z,96953.00
2023-03-31T05:52:28.528Z,96943.00
2023-03-31T05:55:04.437Z,96934.00
2023-03-31T05:57:39.319Z,96926.00
2023-03-31T06:00:15.176Z,96908.00
2023-03-31T06:02:51.372Z,96896.00
2023-03-31T06:05:26.896Z,96896.00
2023-03-31T06:08:01.983Z,96885.00
2023-03-31T06:10:38.841Z,96877.00
2023-03-31T06:13:13.762Z,96882.00
2023-03-31T06:16:00.316Z,96877.00
2023-03-31T06:18:36.539Z,96873.00
2023-03-31T06:21:16.272Z,96860.00
2023-03-31T06:23:55.090Z,96864.00
2023-03-31T06:26:36.091Z,96851.00
2023-03-31T06:29:11.083Z,96838.00
2023-03-31T06:31:45.964Z,96844.00
2023-03-31T06:34:21.920Z,96837.00
2023-03-31T06:36:56.952Z,96846.00
2023-03-31T06:39:31.918Z,96850.00
2023-03-31T06:42:07.224Z,96840.00
2023-03-31T06:44:48.715Z,96846.00
2023-03-31T06:47:23.702Z,96850.00
2023-03-31T06:49:58.629Z,96847.00
2023-03-31T06:52:33.483Z,96853.00
2023-03-31T06:55:09.277Z,96857.00
2023-03-31T06:57:44.199Z,96866.00
2023-03-31T07:00:21.597Z,96875.00
2023-03-31T07:02:58.290Z,96902.00
2023-03-31T07:05:33.335Z,96910.00
2023-03-31T07:08:08.237Z,96913.00
2023-03-31T07:10:46.571Z,96924.00
2023-03-31T07:13:21.450Z,96910.00
2023-03-31T07:15:56.720Z,96899.00
2023-03-31T07:18:35.574Z,96866.00
2023-03-31T07:21:11.103Z,96795.00
2023-03-31T07:23:46.233Z,96797.00
2023-03-31T07:26:21.353Z,96798.00
2023-03-31T07:28:57.381Z,96794.00
2023-03-31T07:31:32.778Z,96803.00
2023-03-31T07:34:07.796Z,96811.00
2023-03-31T07:36:42.752Z,96808.00
2023-03-31T07:39:17.834Z,96820.00
2023-03-31T07:41:52.757Z,96820.00
2023-03-31T07:44:27.595Z,96816.00
2023-03-31T07:47:06.158Z,96815.00
2023-03-31T07:49:41.083Z,96824.00
2023-03-31T07:52:16.433Z,96808.00
2023-03-31T07:54:51.553Z,96820.00
2023-03-31T07:57:26.627Z,96806.00
2023-03-31T08:00:05.939Z,96794.00
2023-03-31T08:02:47.161Z,96800.00
2023-03-31T08:05:22.135Z,96793.00
2023-03-31T08:07:57.204Z,96818.00
2023-03-31T08:10:32.240Z,96800.00
2023-03-31T08:13:07.303Z,96806.00
2023-03-31T08:15:42.291Z,96817.00
2023-03-31T08:18:17.496Z,96808.00
2023-03-31T08:20:52.512Z,96791.00
2023-03-31T08:23:27.510Z,96801.00
2023-03-31T08:26:21.837Z,96800.00
2023-03-31T08:28:59.063Z,96788.00
2023-03-31T08:31:34.043Z,96780.00
2023-03-31T08:34:09.069Z,96780.00
2023-03-31T08:36:44.106Z,96778.00
2023-03-31T08:39:18.962Z,96788.00
2023-03-31T08:42:16.533Z,96783.00
2023-03-31T08:45:22.530Z,96780.00
2023-03-31T08:48:30.915Z,96773.00
2023-03-31T08:51:14.689Z,96768.00
2023-03-31T08:54:21.794Z,96772.00
2023-03-31T08:56:57.474Z,96777.00
2023-03-31T08:59:34.850Z,96764.00
2023-03-31T09:02:30.568Z,96788.00
2023-03-31T09:05:27.462Z,96784.00
2023-03-31T09:08:36.934Z,96763.00
2023-03-31T09:11:33.218Z,96756.00
2023-03-31T09:14:27.122Z,96763.00
2023-03-31T09:17:29.924Z,96752.00
2023-03-31T09:20:14.430Z,96748.00
2023-03-31T09:23:27.023Z,96730.00
2023-03-31T09:26:04.307Z,96719.00
2023-03-31T09:28:40.805Z,96750.00
2023-03-31T09:31:19.984Z,96764.00
2023-03-31T09:34:01.570Z,96749.00
2023-03-31T09:36:36.561Z,96761.00
2023-03-31T09:39:14.839Z,96767.00
2023-03-31T09:41:52.208Z,96753.00
2023-03-31T09:44:39.291Z,96759.00
2023-03-31T09:47:29.213Z,96754.00
2023-03-31T09:50:04.796Z,96747.00
2023-03-31T09:52:56.551Z,96757.00
2023-03-31T09:55:56.952Z,96720.00
2023-03-31T09:58:32.382Z,96724.00
2023-03-31T10:01:09.914Z,96723.00
2023-03-31T10:03:55.385Z,96711.00
2023-03-31T10:06:30.846Z,96712.00
2023-03-31T10:09:06.329Z,96724.00
2023-03-31T10:11:54.916Z,96743.00
2023-03-31T10:14:44.407Z,96708.00
2023-03-31T10:17:24.918Z,96710.00
2023-03-31T10:20:11.875Z,96705.00
2023-03-31T10:22:47.158Z,96681.00
2023-03-31T10:25:27.942Z,96673.00
2023-03-31T10:28:03.395Z,96708.00
2023-03-31T10:30:40.509Z,96695.00
2023-03-31T10:33:25.024Z,96676.00
2023-03-31T10:36:02.694Z,96668.00
2023-03-31T10:38:43.545Z,96672.00
2023-03-31T10:41:28.589Z,96681.00
2023-03-31T10:44:04.936Z,96630.00
2023-03-31T10:46:49.502Z,96654.00
2023-03-31T10:49:28.398Z,96654.00
2023-03-31T10:52:04.487Z,96662.00
2023-03-31T10:54:48.414Z,96644.00
2023-03-31T10:57:56.366Z,96665.00
2023-03-31T11:00:56.572Z,96634.00
2023-03-31T11:04:23.706Z,96646.00
2023-03-31T11:07:29.375Z,96621.00
2023-03-31T11:10:32.321Z,96636.00
2023-03-31T11:13:26.250Z,96634.00
2023-03-31T11:16:31.633Z,96652.00
2023-03-31T11:19:45.522Z,96652.00
2023-03-31T11:22:38.172Z,96744.00
2023-03-31T11:25:39.901Z,96831.00
2023-03-31T11:29:03.563Z,96824.00
2023-03-31T11:32:16.246Z,96813.00
2023-03-31T11:35:00.268Z,96781.00
2023-03-31T11:38:13.007Z,96784.00
2023-03-31T11:41:06.714Z,96777.00
2023-03-31T11:43:56.652Z,96785.00
2023-03-31T11:46:57.530Z,96798.00
2023-03-31T11:49:39.098Z,96785.00
2023-03-31T11:52:16.937Z,96779.00
2023-03-31T11:55:04.434Z,96763.00
2023-03-31T11:57:44.316Z,96772.00
2023-03-31T12:01:03.318Z,96760.00
2023-03-31T12:03:46.858Z,96751.00
2023-03-31T12:06:28.017Z,96749.00
2023-03-31T12:09:24.324Z,96727.00
2023-03-31T12:12:21.342Z,96726.00
2023-03-31T12:15:06.138Z,96735.00
2023-03-31T12:17:45.866Z,96712.00
2023-03-31T12:20:39.013Z,96713.00
2023-03-31T12:23:23.007Z,96708.00
2023-03-31T12:26:11.755Z,96698.00
2023-03-31T12:28:47.868Z,96708.00
2023-03-31T12:31:25.574Z,96699.00
2023-03-31T12:34:13.839Z,96705.00
2023-03-31T12:37:16.590Z,96695.00
2023-03-31T12:40:18.613Z,96686.00
2023-03-31T12:43:22.273Z,96667.00
2023-03-31T12:46:31.240Z,96659.00
2023-03-31T12:49:12.178Z,96662.00
2023-03-31T12:52:04.513Z,96652.00
2023-03-31T12:55:04.235Z,96640.00
2023-03-31T12:57:39.236Z,96648.00
2023-03-31T13:00:27.300Z,96635.00
2023-03-31T13:03:34.006Z,96638.00
2023-03-31T13:06:32.785Z,96667.00
2023-03-31T13:09:33.394Z,96656.00
2023-03-31T13:12:30.920Z,96701.00
2023-03-31T13:15:13.676Z,96680.00
2023-03-31T13:18:03.327Z,96666.00
2023-03-31T13:20:42.122Z,96660.00
2023-03-31T13:23:22.528Z,96650.00
2023-03-31T13:25:59.199Z,96706.00
2023-03-31T13:28:42.995Z,96665.00
2023-03-31T13:31:18.145Z,96655.00
2023-03-31T13:34:02.865Z,96666.00
2023-03-31T13:36:54.776Z,96668.00
2023-03-31T13:39:45.849Z,96676.00
2023-03-31T13:42:58.574Z,96686.00
2023-03-31T13:46:08.295Z,96642.00
2023-03-31T13:49:20.296Z,96657.00
2023-03-31T13:52:10.296Z,96669.00
2023-03-31T13:55:13.536Z,96670.00
2023-03-31T13:58:30.053Z,96623.00
2023-03-31T14:01:32.228Z,96608.00
2023-03-31T14:04:46.841Z,96643.00
2023-03-31T14:07:31.694Z,96600.00
2023-03-31T14:10:24.466Z,96616.00
2023-03-31T14:13:06.498Z,96605.00
2023-03-31T14:15:48.468Z,96608.00
2023-03-31T14:18:31.017Z,96610.00
2023-03-31T14:21:33.089Z,96626.00
2023-03-31T14:24:22.469Z,96617.00
2023-03-31T14:27:20.572Z,96630.00
2023-03-31T14:30:35.431Z,96618.00
2023-03-31T14:33:41.109Z,96629.00
2023-03-31T14:36:52.705Z,96612.00
2023-03-31T14:39:35.614Z,96637.00
2023-03-31T14:42:17.866Z,96635.00
2023-03-31T14:45:06.111Z,96625.00
2023-03-31T14:47:41.115Z,96631.00
2023-03-31T14:50:18.926Z,96609.00
2023-03-31T14:52:53.843Z,96615.00
2023-03-31T14:55:44.113Z,96619.00
2023-03-31T14:58:34.938Z,96608.00
2023-03-31T15:01:21.235Z,96608.00
2023-03-31T15:03:56.403Z,96612.00
2023-03-31T15:06:33.083Z,96592.00
2023-03-31T15:09:16.668Z,96592.00
2023-03-31T15:12:07.924Z,96593.00
2023-03-31T15:14:52.486Z,96587.00
2023-03-31T15:17:37.641Z,96574.00
2023-03-31T15:20:29.528Z,96575.00
2023-03-31T15:23:27.471Z,96565.00
2023-03-31T15:26:08.828Z,96586.00
2023-03-31T15:29:02.078Z,96575.00
2023-03-31T15:31:37.124Z,96578.00
2023-03-31T15:34:24.583Z,96586.00
2023-03-31T15:37:01.060Z,96587.00
2023-03-31T15:39:38.284Z,96577.00
2023-03-31T15:42:13.523Z,96574.00
2023-03-31T15:44:57.054Z,96581.00
2023-03-31T15:47:38.589Z,96585.00
2023-03-31T15:50:16.167Z,96585.00
2023-03-31T15:52:54.430Z,96617.00
2023-03-31T15:55:40.277Z,96583.00
2023-03-31T15:58:16.842Z,96585.00
2023-03-31T16:00:53.221Z,96595.00
2023-03-31T16:03:38.640Z,96591.00
2023-03-31T16:06:41.880Z,96589.00
2023-03-31T16:09:52.725Z,96591.00
2023-03-31T16:12:43.532Z,96597.00
2023-03-31T16:15:38.167Z,96618.00
2023-03-31T16:18:18.895Z,96620.00
2023-03-31T16:20:57.165Z,96634.00
2023-03-31T16:23:38.073Z,96628.00
2023-03-31T16:26:13.220Z,96630.00
2023-03-31T16:28:52.845Z,96644.00
2023-03-31T16:31:41.498Z,96642.00
2023-03-31T16:34:16.826Z,96635.00
2023-03-31T16:36:51.810Z,96642.00
2023-03-31T16:39:26.744Z,96639.00
2023-03-31T16:42:04.084Z,96640.00
2023-03-31T16:44:40.310Z,96630.00
2023-03-31T16:50:11.652Z,96608.00
2023-03-31T16:52:47.221Z,96612.00
2023-03-31T16:55:22.234Z,96609.00
2023-03-31T16:57:59.609Z,96594.00
2023-03-31T17:00:36.207Z,96585.00
2023-03-31T17:03:12.400Z,96581.00
2023-03-31T17:05:52.737Z,96591.00
2023-03-31T17:08:31.313Z,96586.00
2023-03-31T17:11:11.029Z,96596.00
2023-03-31T17:13:46.492Z,96621.00
2023-03-31T17:16:29.776Z,96623.00
2023-03-31T17:19:11.581Z,96622.00
2023-03-31T17:21:46.712Z,96634.00
2023-03-31T17:24:22.364Z,96641.00
2023-03-31T17:26:57.681Z,96642.00
2023-03-31T17:29:32.517Z,96642.00
2023-03-31T17:32:07.586Z,96642.00
2023-03-31T17:34:42.625Z,96649.00
2023-03-31T17:37:19.590Z,96638.00
2023-03-31T17:39:55.548Z,96655.00
2023-03-31T17:42:31.414Z,96659.00
2023-03-31T17:45:08.702Z,96650.00
2023-03-31T17:47:45.106Z,96651.00
2023-03-31T17:50:20.115Z,96665.00
2023-03-31T17:52:55.598Z,96675.00
2023-03-31T17:55:31.307Z,96685.00
2023-03-31T17:58:08.415Z,96706.00
2023-03-31T18:00:43.437Z,96729.00
2023-03-31T18:03:18.425Z,96701.00
2023-03-31T18:05:53.383Z,96704.00
2023-03-31T18:08:29.944Z,96699.00
2023-03-31T18:11:08.293Z,96694.00
2023-03-31T18:13:43.430Z,96687.00
2023-03-31T18:16:19.377Z,96690.00
2023-03-31T18:18:54.409Z,96688.00
2023-03-31T18:21:29.368Z,96673.00
2023-03-31T18:24:04.369Z,96678.00
2023-03-31T18:26:40.144Z,96686.00
2023-03-31T18:29:15.841Z,96683.00
2023-03-31T18:31:50.829Z,96679.00
2023-03-31T18:34:25.837Z,96684.00
2023-03-31T18:37:00.755Z,96688.00
2023-03-31T18:39:35.833Z,96680.00
2023-03-31T18:42:10.738Z,96685.00
2023-03-31T18:44:46.400Z,96689.00
2023-03-31T18:47:21.678Z,96696.00
2023-03-31T18:49:57.549Z,96687.00
2023-03-31T18:52:32.472Z,96681.00
2023-03-31T18:55:08.007Z,96680.00
2023-03-31T18:57:42.970Z,96686.00
2023-03-31T19:00:18.821Z,96685.00
2023-03-31T19:02:54.574Z,96683.00
2023-03-31T19:05:30.624Z,96681.00
2023-03-31T19:08:06.651Z,96677.00
2023-03-31T19:10:41.767Z,96681.00
2023-03-31T19:13:16.852Z,96683.00
2023-03-31T19:15:51.980Z,96683.00
2023-03-31T19:18:29.342Z,96690.00
2023-03-31T19:21:05.278Z,96677.00
2023-03-31T19:23:40.570Z,96689.00
2023-03-31T19:26:19.427Z,96681.00
2023-03-31T19:28:54.391Z,96681.00
2023-03-31T19:31:29.440Z,96674.00
2023-03-31T19:34:05.938Z,96674.00
2023-03-31T19:36:40.950Z,96669.00
2023-03-31T19:39:16.669Z,96670.00
2023-03-31T19:41:51.617Z,96672.00
2023-03-31T19:44:26.538Z,96677.00
2023-03-31T19:47:01.634Z,96670.00
2023-03-31T19:49:36.864Z,96675.00
2023-03-31T19:52:11.865Z,96678.00
2023-03-31T19:54:46.826Z,96671.00
2023-03-31T19:57:21.805Z,96670.00
2023-03-31T19:59:56.719Z,96672.00
2023-03-31T20:02:31.658Z,96669.00
2023-03-31T20:05:07.448Z,96683.00
2023-03-31T20:07:42.390Z,96679.00
2023-03-31T20:10:17.329Z,96686.00
2023-03-31T20:12:52.212Z,96677.00
2023-03-31T20:15:27.175Z,96681.00
2023-03-31T20:18:02.604Z,96679.00
2023-03-31T20:20:38.071Z,96685.00
2023-03-31T20:23:12.996Z,96691.00
2023-03-31T20:25:48.482Z,96691.00
2023-03-31T20:28:23.379Z,96699.00
2023-03-31T20:30:58.244Z,96704.00
2023-03-31T20:33:33.137Z,96701.00
2023-03-31T20:36:14.012Z,96701.00
2023-03-31T20:38:51.338Z,96700.00
2023-03-31T20:41:28.619Z,96691.00
2023-03-31T20:44:05.889Z,96701.00
2023-03-31T20:46:42.206Z,96701.00
2023-03-31T20:49:17.076Z,96698.00
2023-03-31T20:51:51.961Z,96702.00
2023-03-31T20:54:27.200Z,96700.00
2023-03-31T20:57:05.649Z,96705.00
2023-03-31T20:59:40.737Z,96703.00
2023-03-31T21:02:16.196Z,96703.00
2023-03-31T21:04:52.494Z,96704.00
2023-03-31T21:07:27.326Z,96711.00
2023-03-31T21:10:02.538Z,96701.00
2023-03-31T21:12:37.937Z,96702.00
2023-03-31T21:15:13.234Z,96704.00
2023-03-31T21:17:48.147Z,96704.00
2023-03-31T21:20:22.993Z,96699.00
2023-03-31T21:22:57.969Z,96701.00
2023-03-31T21:25:33.218Z,96711.00
2023-03-31T21:28:08.513Z,96700.00
2023-03-31T21:31:01.648Z,96701.00
2023-03-31T21:33:39.569Z,96703.00
2023-03-31T21:36:17.993Z,96705.00
2023-03-31T21:38:53.959Z,96705.00
2023-03-31T21:41:31.072Z,96710.00
2023-03-31T21:44:06.504Z,96715.00
2023-03-31T21:46:41.428Z,96719.00
2023-03-31T21:49:17.352Z,96715.00
2023-03-31T21:51:53.298Z,96718.00
2023-03-31T21:54:28.236Z,96723.00
2023-03-31T21:57:03.603Z,96731.00
2023-03-31T21:59:39.809Z,96733.00
2023-03-31T22:02:14.654Z,96736.00
2023-03-31T22:04:49.748Z,96721.00
2023-03-31T22:07:24.711Z,96743.00
2023-03-31T22:09:59.561Z,96729.00
2023-03-31T22:12:34.510Z,96725.00
2023-03-31T22:15:10.856Z,96731.00
2023-03-31T22:17:45.981Z,96722.00
2023-03-31T22:20:21.005Z,96734.00
2023-03-31T22:22:56.357Z,96712.00
2023-03-31T22:25:31.524Z,96721.00
2023-03-31T22:28:07.480Z,96733.00
2023-03-31T22:30:43.076Z,96719.00
2023-03-31T22:33:17.928Z,96719.00
2023-03-31T22:35:52.867Z,96727.00
2023-03-31T22:38:27.760Z,96736.00
2023-03-31T22:41:02.831Z,96735.00
2023-03-31T22:43:37.797Z,96722.00
2023-03-31T22:46:12.880Z,96735.00
2023-03-31T22:48:51.192Z,96731.00
2023-03-31T22:51:27.037Z,96727.00
2023-03-31T22:54:01.894Z,96732.00
2023-03-31T22:56:36.945Z,96721.00
2023-03-31T22:59:12.097Z,96731.00
2023-03-31T23:01:52.782Z,96731.00
2023-03-31T23:04:28.033Z,96732.00
2023-03-31T23:07:02.994Z,96740.00
2023-03-31T23:09:37.856Z,96732.00
2023-03-31T23:12:12.733Z,96731.00
2023-03-31T23:14:47.635Z,96734.00
2023-03-31T23:17:22.759Z,96740.00
2023-03-31T23:19:57.600Z,96730.00
2023-03-31T23:22:33.968Z,96721.00
2023-03-31T23:25:09.067Z,96724.00
2023-03-31T23:27:43.923Z,96721.00
2023-03-31T23:30:18.787Z,96725.00
2023-03-31T23:32:55.205Z,96727.00
2023-03-31T23:35:30.538Z,96726.00
2023-03-31T23:38:06.170Z,96723.00
2023-03-31T23:40:41.163Z,96725.00
2023-03-31T23:43:16.599Z,96713.00
2023-03-31T23:45:52.534Z,96725.00
2023-03-31T23:48:27.383Z,96732.00
2023-03-31T23:51:03.057Z,96721.00
2023-03-31T23:53:38.135Z,96730.00
2023-03-31T23:56:13.529Z,96722.00
2023-03-31T23:58:48.390Z,96714.00
